createdAt,value
2023-01-13T00:01:17.416Z,29.73
2023-01-13T00:03:45.152Z,29.27
2023-01-13T00:06:13.623Z,28.70
2023-01-13T00:08:41.016Z,28.13
2023-01-13T00:11:09.786Z,26.27
2023-01-13T00:13:38.514Z,28.00
2023-01-13T00:16:07.477Z,27.80
2023-01-13T00:18:36.916Z,30.87
2023-01-13T00:21:06.268Z,26.80
2023-01-13T00:23:34.505Z,23.73
2023-01-13T00:26:05.134Z,26.90
2023-01-13T00:28:32.528Z,23.93
2023-01-13T00:31:06.976Z,23.10
2023-01-13T00:33:35.215Z,22.17
2023-01-13T00:36:03.747Z,20.90
2023-01-13T00:38:31.551Z,21.80
2023-01-13T00:41:00.249Z,20.97
2023-01-13T00:43:28.141Z,20.83
2023-01-13T00:45:55.520Z,21.30
2023-01-13T00:48:23.824Z,22.80
2023-01-13T00:50:59.887Z,20.67
2023-01-13T00:53:28.146Z,20.02
2023-01-13T00:56:09.999Z,19.93
2023-01-13T00:58:37.648Z,16.30
2023-01-13T01:01:07.259Z,20.17
2023-01-13T01:03:34.921Z,22.10
2023-01-13T01:06:19.454Z,19.67
2023-01-13T01:08:46.830Z,20.70
2023-01-13T01:11:19.352Z,20.07
2023-01-13T01:13:46.770Z,20.57
2023-01-13T01:16:15.658Z,20.80
2023-01-13T01:18:44.618Z,20.07
2023-01-13T01:21:12.027Z,18.60
2023-01-13T01:23:39.689Z,19.57
2023-01-13T01:26:18.676Z,21.67
2023-01-13T01:28:46.349Z,21.07
2023-01-13T01:31:27.597Z,20.70
2023-01-13T01:33:55.423Z,20.23
2023-01-13T01:36:23.533Z,20.07
2023-01-13T01:38:50.935Z,21.23
2023-01-13T01:41:21.575Z,19.97
2023-01-13T01:43:59.571Z,20.07
2023-01-13T01:46:27.776Z,21.77
2023-01-13T01:48:58.342Z,23.23
2023-01-13T01:51:25.794Z,23.30
2023-01-13T01:53:53.848Z,23.13
2023-01-13T01:56:21.254Z,25.37
2023-01-13T01:58:51.150Z,24.30
2023-01-13T02:01:18.922Z,24.23
2023-01-13T02:03:52.702Z,25.60
2023-01-13T02:06:20.112Z,22.47
2023-01-13T02:08:47.721Z,22.17
2023-01-13T02:11:51.664Z,24.63
2023-01-13T02:14:20.339Z,19.57
2023-01-13T02:17:28.149Z,18.33
2023-01-13T02:20:29.443Z,19.67
2023-01-13T02:23:35.128Z,18.47
2023-01-13T02:29:14.145Z,16.60
2023-01-13T02:31:42.219Z,16.17
2023-01-13T02:34:11.700Z,17.23
2023-01-13T02:36:57.343Z,19.03
2023-01-13T02:40:02.939Z,16.30
2023-01-13T02:42:53.853Z,16.90
2023-01-13T02:45:50.864Z,19.57
2023-01-13T02:48:18.264Z,19.33
2023-01-13T02:51:05.079Z,19.97
2023-01-13T02:54:00.767Z,19.95
2023-01-13T02:56:28.447Z,19.85
2023-01-13T02:58:56.172Z,20.33
2023-01-13T03:01:23.786Z,17.93
2023-01-13T03:03:51.473Z,17.80
2023-01-13T03:06:46.195Z,17.37
2023-01-13T03:09:21.594Z,17.97
2023-01-13T03:12:10.967Z,19.23
2023-01-13T03:15:04.567Z,18.30
2023-01-13T03:17:45.070Z,18.40
2023-01-13T03:20:32.374Z,18.47
2023-01-13T03:23:07.471Z,18.27
2023-01-13T03:25:49.568Z,17.30
2023-01-13T03:28:41.372Z,19.03
2023-01-13T03:31:12.987Z,18.37
2023-01-13T03:33:46.566Z,17.87
2023-01-13T03:36:14.996Z,17.80
2023-01-13T03:38:44.422Z,16.83
2023-01-13T03:41:39.066Z,16.73
2023-01-13T03:44:22.966Z,16.60
2023-01-13T03:46:56.717Z,16.47
2023-01-13T03:49:25.980Z,16.77
2023-01-13T03:51:56.493Z,17.70
2023-01-13T03:54:25.391Z,17.00
2023-01-13T03:56:55.974Z,17.23
2023-01-13T03:59:27.006Z,16.97
2023-01-13T04:02:04.806Z,18.30
2023-01-13T04:04:39.276Z,16.50
2023-01-13T04:07:16.066Z,18.03
2023-01-13T04:09:50.773Z,19.07
2023-01-13T04:12:54.993Z,19.57
2023-01-13T04:15:23.878Z,18.47
2023-01-13T04:17:51.692Z,18.37
2023-01-13T04:20:19.102Z,17.33
2023-01-13T04:22:46.831Z,18.20
2023-01-13T04:25:14.357Z,18.20
2023-01-13T04:27:41.778Z,18.23
2023-01-13T04:30:10.099Z,17.50
2023-01-13T04:32:37.471Z,17.00
2023-01-13T04:35:05.399Z,19.07
2023-01-13T04:37:33.508Z,17.77
2023-01-13T04:40:00.869Z,19.37
2023-01-13T04:42:28.219Z,16.93
2023-01-13T04:44:56.657Z,17.80
2023-01-13T04:47:24.151Z,17.13
2023-01-13T04:49:51.519Z,18.37
2023-01-13T04:52:19.373Z,17.67
2023-01-13T04:54:46.708Z,18.33
2023-01-13T04:57:14.129Z,17.73
2023-01-13T04:59:42.134Z,17.20
2023-01-13T05:02:09.588Z,17.70
2023-01-13T05:04:37.015Z,19.00
2023-01-13T05:07:04.683Z,18.73
2023-01-13T05:09:32.047Z,20.30
2023-01-13T05:12:18.277Z,16.97
2023-01-13T05:17:31.520Z,18.25
2023-01-13T05:19:59.136Z,18.63
2023-01-13T05:22:45.432Z,17.10
2023-01-13T05:25:22.156Z,21.63
2023-01-13T05:27:49.954Z,18.77
2023-01-13T05:30:17.885Z,24.43
2023-01-13T05:32:45.297Z,20.43
2023-01-13T05:35:12.766Z,22.17
2023-01-13T05:37:40.469Z,23.47
2023-01-13T05:40:27.120Z,29.53
2023-01-13T05:43:25.974Z,26.50
2023-01-13T05:46:01.077Z,28.27
2023-01-13T05:48:36.103Z,29.73
2023-01-13T05:51:04.453Z,27.87
2023-01-13T05:53:32.359Z,25.13
2023-01-13T05:55:59.796Z,22.30
2023-01-13T05:58:27.745Z,20.30
2023-01-13T06:01:05.015Z,25.57
2023-01-13T06:03:32.845Z,26.30
2023-01-13T06:06:02.117Z,24.43
2023-01-13T06:08:30.441Z,22.80
2023-01-13T06:10:58.147Z,30.93
2023-01-13T06:13:25.793Z,27.50
2023-01-13T06:15:57.783Z,23.97
2023-01-13T06:18:25.525Z,25.93
2023-01-13T06:20:52.877Z,27.57
2023-01-13T06:23:20.235Z,27.77
2023-01-13T06:26:00.820Z,28.07
2023-01-13T06:28:28.234Z,22.77
2023-01-13T06:30:57.765Z,24.43
2023-01-13T06:33:28.651Z,25.67
2023-01-13T06:35:58.368Z,27.23
2023-01-13T06:38:26.103Z,26.43
2023-01-13T06:40:53.468Z,31.90
2023-01-13T06:43:21.088Z,31.03
2023-01-13T06:45:52.626Z,28.07
2023-01-13T06:48:21.703Z,25.80
2023-01-13T06:50:49.413Z,27.03
2023-01-13T06:53:16.885Z,30.00
2023-01-13T06:55:44.314Z,26.03
2023-01-13T06:58:11.954Z,25.60
2023-01-13T07:00:39.524Z,29.30
2023-01-13T07:03:11.803Z,28.03
2023-01-13T07:05:39.840Z,28.47
2023-01-13T07:08:07.330Z,25.27
2023-01-13T07:10:34.891Z,26.57
2023-01-13T07:13:21.851Z,25.33
2023-01-13T07:16:02.707Z,25.70
2023-01-13T07:18:31.870Z,23.00
2023-01-13T07:21:00.949Z,21.27
2023-01-13T07:23:29.273Z,22.90
2023-01-13T07:25:57.388Z,23.23
2023-01-13T07:28:25.319Z,22.77
2023-01-13T07:30:52.798Z,24.37
2023-01-13T07:33:20.492Z,24.77
2023-01-13T07:35:48.172Z,22.83
2023-01-13T07:38:15.701Z,23.30
2023-01-13T07:40:43.423Z,23.63
2023-01-13T07:43:31.139Z,24.97
2023-01-13T07:45:59.715Z,22.13
2023-01-13T07:48:27.515Z,25.00
2023-01-13T07:50:55.374Z,22.53
2023-01-13T07:53:24.957Z,22.73
2023-01-13T07:55:56.779Z,22.40
2023-01-13T07:58:25.455Z,22.37
2023-01-13T08:00:53.071Z,21.37
2023-01-13T08:03:21.311Z,21.57
2023-01-13T08:05:48.875Z,23.87
2023-01-13T08:08:16.223Z,19.23
2023-01-13T08:10:44.979Z,19.57
2023-01-13T08:13:22.265Z,20.57
2023-01-13T08:15:54.447Z,18.37
2023-01-13T08:18:22.264Z,16.27
2023-01-13T08:20:52.261Z,16.60
2023-01-13T08:23:20.365Z,14.63
2023-01-13T08:25:47.925Z,14.77
2023-01-13T08:28:16.038Z,15.33
2023-01-13T08:30:43.726Z,15.30
2023-01-13T08:33:12.023Z,14.00
2023-01-13T08:35:40.610Z,15.17
2023-01-13T08:38:08.247Z,14.20
2023-01-13T08:40:35.766Z,14.57
2023-01-13T08:43:03.443Z,15.17
2023-01-13T08:45:30.903Z,15.57
2023-01-13T08:47:58.289Z,14.93
2023-01-13T08:50:25.964Z,14.53
2023-01-13T08:52:53.507Z,15.60
2023-01-13T08:55:21.120Z,14.70
2023-01-13T08:57:48.941Z,12.87
2023-01-13T09:00:17.284Z,13.60
2023-01-13T09:02:44.784Z,13.63
2023-01-13T09:05:12.478Z,13.90
2023-01-13T09:07:39.878Z,14.60
2023-01-13T09:10:08.027Z,13.73
2023-01-13T09:12:54.271Z,14.13
2023-01-13T09:15:21.896Z,15.60
2023-01-13T09:17:49.600Z,15.90
2023-01-13T09:20:17.108Z,14.53
2023-01-13T09:22:44.478Z,15.63
2023-01-13T09:25:12.817Z,14.17
2023-01-13T09:27:40.213Z,15.03
2023-01-13T09:30:08.280Z,13.60
2023-01-13T09:32:37.575Z,15.03
2023-01-13T09:35:06.751Z,14.60
2023-01-13T09:37:36.701Z,15.90
2023-01-13T09:40:08.468Z,16.13
2023-01-13T09:43:13.687Z,15.30
2023-01-13T09:45:47.254Z,14.93
2023-01-13T09:48:27.043Z,15.00
2023-01-13T09:51:09.846Z,14.70
2023-01-13T09:53:43.710Z,16.37
2023-01-13T09:56:11.677Z,16.07
2023-01-13T09:58:39.266Z,17.20
2023-01-13T10:01:15.482Z,19.47
2023-01-13T10:03:43.290Z,17.00
2023-01-13T10:06:16.703Z,18.67
2023-01-13T10:08:45.221Z,18.87
2023-01-13T10:11:36.503Z,18.27
2023-01-13T10:14:20.200Z,17.13
2023-01-13T10:16:50.396Z,17.50
2023-01-13T10:19:25.819Z,16.95
2023-01-13T10:22:36.161Z,18.87
2023-01-13T10:25:20.508Z,16.33
2023-01-13T10:27:50.129Z,18.57
2023-01-13T10:30:21.351Z,16.75
2023-01-13T10:33:29.975Z,18.90
2023-01-13T10:36:01.999Z,20.27
2023-01-13T10:38:37.872Z,19.65
2023-01-13T10:41:15.612Z,20.33
2023-01-13T10:43:43.587Z,21.00
2023-01-13T10:46:18.260Z,19.20
2023-01-13T10:48:52.972Z,19.67
2023-01-13T10:51:51.311Z,19.43
2023-01-13T10:54:22.215Z,18.17
2023-01-13T10:56:50.478Z,16.67
2023-01-13T10:59:24.557Z,17.75
2023-01-13T11:02:01.218Z,15.98
2023-01-13T11:04:51.194Z,15.90
2023-01-13T11:07:28.414Z,19.23
2023-01-13T11:10:20.749Z,19.43
2023-01-13T11:13:11.743Z,17.63
2023-01-13T11:15:45.493Z,18.27
2023-01-13T11:18:25.505Z,17.07
2023-01-13T11:20:52.849Z,20.87
2023-01-13T11:23:27.520Z,18.03
2023-01-13T11:25:59.384Z,19.27
2023-01-13T11:28:38.648Z,18.80
2023-01-13T11:31:08.764Z,20.10
2023-01-13T11:33:41.756Z,17.55
2023-01-13T11:36:23.603Z,19.17
2023-01-13T11:38:56.257Z,18.20
2023-01-13T11:41:35.417Z,18.03
2023-01-13T11:44:08.632Z,18.73
2023-01-13T11:46:36.161Z,20.03
2023-01-13T11:49:03.807Z,18.77
2023-01-13T11:51:38.901Z,18.43
2023-01-13T11:54:17.727Z,18.52
2023-01-13T11:57:03.931Z,20.87
2023-01-13T11:59:59.791Z,20.47
2023-01-13T12:02:29.882Z,21.98
2023-01-13T12:05:05.603Z,21.17
2023-01-13T12:07:49.029Z,21.20
2023-01-13T12:10:30.177Z,20.10
2023-01-13T12:13:07.436Z,21.30
2023-01-13T12:16:01.203Z,19.63
2023-01-13T12:18:38.279Z,22.63
2023-01-13T12:21:26.965Z,21.10
2023-01-13T12:24:13.742Z,22.52
2023-01-13T12:26:44.979Z,22.58
2023-01-13T12:29:19.031Z,22.83
2023-01-13T12:31:48.739Z,23.63
2023-01-13T12:34:23.745Z,22.53
2023-01-13T12:37:36.086Z,22.67
2023-01-13T12:40:12.358Z,22.00
2023-01-13T12:43:09.777Z,23.92
2023-01-13T12:45:37.368Z,21.85
2023-01-13T12:48:05.209Z,22.65
2023-01-13T12:50:32.417Z,23.77
2023-01-13T12:53:00.850Z,23.23
2023-01-13T12:55:33.292Z,21.63
2023-01-13T12:58:15.989Z,22.30
2023-01-13T13:00:45.274Z,22.52
2023-01-13T13:03:12.648Z,21.63
2023-01-13T13:05:55.463Z,22.98
2023-01-13T13:08:46.261Z,23.30
2023-01-13T13:11:32.251Z,22.05
2023-01-13T13:14:00.701Z,24.23
2023-01-13T13:16:30.949Z,22.58
2023-01-13T13:19:20.232Z,23.17
2023-01-13T13:22:12.364Z,23.07
2023-01-13T13:24:48.980Z,23.60
2023-01-13T13:27:26.516Z,24.25
2023-01-13T13:29:58.681Z,23.67
2023-01-13T13:32:47.248Z,24.63
2023-01-13T13:35:43.570Z,22.00
2023-01-13T13:38:48.319Z,23.70
2023-01-13T13:41:39.668Z,23.20
2023-01-13T13:44:44.953Z,23.33
2023-01-13T13:47:12.353Z,23.63
2023-01-13T13:49:50.691Z,25.37
2023-01-13T13:52:30.520Z,25.80
2023-01-13T13:55:04.296Z,25.55
2023-01-13T13:57:39.931Z,26.45
2023-01-13T14:00:15.017Z,24.83
2023-01-13T14:02:48.253Z,24.52
2023-01-13T14:05:19.644Z,28.83
2023-01-13T14:07:52.585Z,23.63
2023-01-13T14:10:24.859Z,25.48
2023-01-13T14:12:52.825Z,26.30
2023-01-13T14:15:31.297Z,26.40
2023-01-13T14:18:00.826Z,28.12
2023-01-13T14:20:29.149Z,28.12
2023-01-13T14:23:01.375Z,25.15
2023-01-13T14:25:39.363Z,24.05
2023-01-13T14:28:29.605Z,23.30
2023-01-13T14:30:57.377Z,22.85
2023-01-13T14:33:37.299Z,24.60
2023-01-13T14:36:16.838Z,26.02
2023-01-13T14:38:50.989Z,31.83
2023-01-13T14:41:24.056Z,27.87
2023-01-13T14:43:54.028Z,26.57
2023-01-13T14:46:24.914Z,25.15
2023-01-13T14:48:59.331Z,27.10
2023-01-13T14:51:27.895Z,24.98
2023-01-13T14:53:55.308Z,22.05
2023-01-13T14:56:42.731Z,22.07
2023-01-13T14:59:36.216Z,22.83
2023-01-13T15:02:29.198Z,19.50
2023-01-13T15:05:16.851Z,20.73
2023-01-13T15:07:54.731Z,21.23
2023-01-13T15:10:24.173Z,21.03
2023-01-13T15:12:52.502Z,22.10
2023-01-13T15:15:34.068Z,22.53
2023-01-13T15:18:02.251Z,22.65
2023-01-13T15:20:29.696Z,22.10
2023-01-13T15:23:01.093Z,21.87
2023-01-13T15:25:32.907Z,22.80
2023-01-13T15:28:00.276Z,24.07
2023-01-13T15:30:27.921Z,22.35
2023-01-13T15:32:56.944Z,24.00
2023-01-13T15:35:25.393Z,22.63
2023-01-13T15:37:52.813Z,20.75
2023-01-13T15:40:26.700Z,27.20
2023-01-13T15:43:12.579Z,27.57
2023-01-13T15:45:59.098Z,23.73
2023-01-13T15:48:27.938Z,24.10
2023-01-13T15:50:55.586Z,22.40
2023-01-13T15:53:23.357Z,25.07
2023-01-13T15:55:52.096Z,23.50
2023-01-13T15:58:20.709Z,25.50
2023-01-13T16:00:48.166Z,22.37
2023-01-13T16:03:16.536Z,22.93
2023-01-13T16:05:44.265Z,23.50
2023-01-13T16:08:15.652Z,22.87
2023-01-13T16:10:44.784Z,23.10
2023-01-13T16:13:12.936Z,24.77
2023-01-13T16:15:44.589Z,24.77
2023-01-13T16:18:19.902Z,24.87
2023-01-13T16:20:47.340Z,25.80
2023-01-13T16:23:15.138Z,26.37
2023-01-13T16:25:44.985Z,24.53
2023-01-13T16:28:21.966Z,22.57
2023-01-13T16:30:49.794Z,24.05
2023-01-13T16:33:17.178Z,22.43
2023-01-13T16:36:10.638Z,23.27
2023-01-13T16:38:32.229Z,24.00
2023-01-13T16:40:59.620Z,24.20
2023-01-13T16:43:27.816Z,24.17
2023-01-13T16:45:55.609Z,23.23
2023-01-13T16:48:23.023Z,22.63
2023-01-13T16:50:50.462Z,22.35
2023-01-13T16:53:18.075Z,22.30
2023-01-13T16:55:45.469Z,24.57
2023-01-13T16:58:17.456Z,24.30
2023-01-13T17:00:48.527Z,22.95
2023-01-13T17:03:16.479Z,23.23
2023-01-13T17:05:45.013Z,23.08
2023-01-13T17:08:17.837Z,23.62
2023-01-13T17:10:45.726Z,22.37
2023-01-13T17:13:16.793Z,25.33
2023-01-13T17:15:45.351Z,26.17
2023-01-13T17:18:13.510Z,26.15
2023-01-13T17:20:41.216Z,23.47
2023-01-13T17:23:08.640Z,23.75
2023-01-13T17:25:36.267Z,21.52
2023-01-13T17:28:03.750Z,22.73
2023-01-13T17:30:31.169Z,22.83
2023-01-13T17:32:58.858Z,23.37
2023-01-13T17:35:26.221Z,25.85
2023-01-13T17:37:53.825Z,22.83
2023-01-13T17:40:21.537Z,25.77
2023-01-13T17:42:48.870Z,24.27
2023-01-13T17:45:16.406Z,25.93
2023-01-13T17:47:44.100Z,26.30
2023-01-13T17:50:11.723Z,27.60
2023-01-13T17:52:39.095Z,26.33
2023-01-13T17:55:06.832Z,26.93
2023-01-13T17:57:35.110Z,25.63
2023-01-13T18:00:04.174Z,26.50
2023-01-13T18:02:39.542Z,26.50
2023-01-13T18:05:07.515Z,25.90
2023-01-13T18:07:34.858Z,27.00
2023-01-13T18:10:02.367Z,27.83
2023-01-13T18:12:30.074Z,28.23
2023-01-13T18:14:57.467Z,26.58
2023-01-13T18:17:24.817Z,29.83
2023-01-13T18:20:11.162Z,29.83
2023-01-13T18:22:57.133Z,29.08
2023-01-13T18:25:43.607Z,26.37
2023-01-13T18:28:11.001Z,35.40
2023-01-13T18:30:38.663Z,30.10
2023-01-13T18:33:06.071Z,30.50
2023-01-13T18:35:33.397Z,29.00
2023-01-13T18:38:01.023Z,27.03
2023-01-13T18:40:28.466Z,28.13
2023-01-13T18:42:55.835Z,55.10
2023-01-13T18:45:25.612Z,47.80
2023-01-13T18:47:53.706Z,41.30
2023-01-13T18:50:22.357Z,34.93
2023-01-13T18:52:50.074Z,31.52
2023-01-13T18:55:17.549Z,32.80
2023-01-13T18:57:45.079Z,33.30
2023-01-13T19:00:14.738Z,33.03
2023-01-13T19:02:42.232Z,37.00
2023-01-13T19:05:10.188Z,31.87
2023-01-13T19:07:37.886Z,34.55
2023-01-13T19:10:06.396Z,31.23
2023-01-13T19:12:33.885Z,29.58
2023-01-13T19:15:01.697Z,33.43
2023-01-13T19:17:33.585Z,29.83
2023-01-13T19:20:01.044Z,30.23
2023-01-13T19:22:30.832Z,33.17
2023-01-13T19:24:58.536Z,30.50
2023-01-13T19:27:27.435Z,31.83
2023-01-13T19:29:58.095Z,29.73
2023-01-13T19:32:25.615Z,28.45
2023-01-13T19:34:55.004Z,28.73
2023-01-13T19:37:22.664Z,28.37
2023-01-13T19:39:50.048Z,26.40
2023-01-13T19:42:36.418Z,26.43
2023-01-13T19:45:22.917Z,27.37
2023-01-13T19:47:50.264Z,29.77
2023-01-13T19:50:18.038Z,37.43
2023-01-13T19:52:45.431Z,40.92
2023-01-13T19:55:12.902Z,37.77
2023-01-13T19:57:40.592Z,36.88
2023-01-13T20:00:10.824Z,33.60
2023-01-13T20:02:44.864Z,33.20
2023-01-13T20:05:17.811Z,33.43
2023-01-13T20:07:45.326Z,34.77
2023-01-13T20:10:13.502Z,32.77
2023-01-13T20:12:41.693Z,39.57
2023-01-13T20:15:09.777Z,40.83
2023-01-13T20:17:37.442Z,41.85
2023-01-13T20:20:05.161Z,37.75
2023-01-13T20:22:32.582Z,39.08
2023-01-13T20:25:00.182Z,36.93
2023-01-13T20:27:27.554Z,41.05
2023-01-13T20:29:54.928Z,34.35
2023-01-13T20:32:22.518Z,34.40
2023-01-13T20:34:49.933Z,31.17
2023-01-13T20:37:17.274Z,33.83
2023-01-13T20:39:46.202Z,31.75
2023-01-13T20:42:29.222Z,34.67
2023-01-13T20:44:57.359Z,32.92
2023-01-13T20:47:25.647Z,33.63
2023-01-13T20:49:53.563Z,33.65
2023-01-13T20:52:21.184Z,32.55
2023-01-13T20:54:48.558Z,35.03
2023-01-13T20:57:15.891Z,39.33
2023-01-13T20:59:43.585Z,38.63
2023-01-13T21:02:12.951Z,42.05
2023-01-13T21:04:40.472Z,40.47
2023-01-13T21:07:08.178Z,40.77
2023-01-13T21:09:35.808Z,39.30
2023-01-13T21:12:22.425Z,39.17
2023-01-13T21:15:08.948Z,33.42
2023-01-13T21:17:54.868Z,31.55
2023-01-13T21:20:22.481Z,32.92
2023-01-13T21:22:49.866Z,31.42
2023-01-13T21:25:17.744Z,32.47
2023-01-13T21:27:45.392Z,32.28
2023-01-13T21:30:15.804Z,32.67
2023-01-13T21:32:43.500Z,32.75
2023-01-13T21:35:11.781Z,30.88
2023-01-13T21:37:39.730Z,29.40
2023-01-13T21:40:08.152Z,31.63
2023-01-13T21:42:54.589Z,27.95
2023-01-13T21:45:40.683Z,30.15
2023-01-13T21:50:36.216Z,31.50
2023-01-13T21:53:03.673Z,32.80
2023-01-13T21:55:32.005Z,31.70
2023-01-13T21:58:10.048Z,30.50
2023-01-13T22:00:37.778Z,32.20
2023-01-13T22:03:06.082Z,31.77
2023-01-13T22:05:33.431Z,30.23
2023-01-13T22:08:00.886Z,32.60
2023-01-13T22:10:29.900Z,33.90
2023-01-13T22:13:21.106Z,35.37
2023-01-13T22:15:48.808Z,42.07
2023-01-13T22:18:18.225Z,45.40
2023-01-13T22:20:45.868Z,42.03
2023-01-13T22:23:13.694Z,38.70
2023-01-13T22:25:41.148Z,42.27
2023-01-13T22:28:09.317Z,41.40
2023-01-13T22:30:37.091Z,40.17
2023-01-13T22:33:04.451Z,39.33
2023-01-13T22:35:31.805Z,39.20
2023-01-13T22:37:59.413Z,40.90
2023-01-13T22:40:26.805Z,41.03
2023-01-13T22:42:54.125Z,42.13
2023-01-13T22:45:21.779Z,40.90
2023-01-13T22:47:49.884Z,39.63
2023-01-13T22:50:20.698Z,42.73
2023-01-13T22:52:48.406Z,40.10
2023-01-13T22:55:15.901Z,40.07
2023-01-13T22:57:48.098Z,40.05
2023-01-13T23:00:19.065Z,41.53
2023-01-13T23:02:46.843Z,40.83
2023-01-13T23:05:14.311Z,41.43
2023-01-13T23:07:41.979Z,39.83
2023-01-13T23:10:09.778Z,39.10
2023-01-13T23:12:37.139Z,36.43
2023-01-13T23:15:05.460Z,37.17
2023-01-13T23:17:32.898Z,36.83
2023-01-13T23:20:00.333Z,36.80
2023-01-13T23:22:27.984Z,38.30
2023-01-13T23:24:55.356Z,37.33
2023-01-13T23:27:22.696Z,34.07
2023-01-13T23:29:50.290Z,34.63
2023-01-13T23:32:17.631Z,35.53
2023-01-13T23:34:45.022Z,33.67
2023-01-13T23:37:12.877Z,34.45
2023-01-13T23:39:40.498Z,33.97
2023-01-13T23:42:08.098Z,33.63
2023-01-13T23:44:35.881Z,33.30
2023-01-13T23:47:03.274Z,33.13
2023-01-13T23:49:30.589Z,32.88
2023-01-13T23:51:58.313Z,36.40
2023-01-13T23:54:25.878Z,34.70
2023-01-13T23:56:53.759Z,34.60
2023-01-13T23:59:21.474Z,34.67
